Franklin, NC

1:43 PM EDT on April 26, 2015 (GMT -0400)
Franklin | | Change Station
CLOSE
Current Station
Airport
Location: Franklin,
Elevation: 2021 ft
Nearby Weather Stations

Elev 2021 ft 35.22 °N, 83.42 °W | Updated 8 minutes ago

Overcast
Overcast
68 °F
Feels Like 68 °F
N
7
Wind Variable Wind from NNW
Gusts 18 mph

Today
High -- | Low -- °F
--% Chance of Precip.
Yesterday
High -- | Low -- °F
Precip. -- in
6:48 AM 8:15 PM
First Quarter, 57% visible
Pressure 29.70 in
Visibility 10.0 miles
Clouds
Dew Point 50 °F
Humidity 53%
Rainfall 0.18 in
Snow Depth Not available.
UV Not available.
Pollen 8.00 out of 12
Air Quality Not available.
Flu Activity Sporadic
METAR K1A5 261735Z AUTO 34006G16KT 10SM 20/10 A2970 RMK AO2 T01970099

More Conditions Fewer Conditions

Pressure 29.70 in
Visibility 10.0 miles
Clouds
Dew Point 50 °F
Humidity 53%
Rainfall 0.18 in
Snow Depth Not available.
UV Not available.
Pollen 8.00 out of 12
Air Quality Not available.
Flu Activity Sporadic
METAR K1A5 261735Z AUTO 34006G16KT 10SM 20/10 A2970 RMK AO2 T01970099

More Conditions Fewer Conditions

The full scope of the disaster following a powerful 7.8-magnitude earthquake in Nepal may not come into view for days, but global charities are already sending emergency aid. Click to see how you can help.

10-Day Weather Forecast

Almanac

Astronomy

Apr. 26, 2015 Rise Set
Actual Time
Civil Twilight
Nautical Twilight
Astronomical Twilight
Moon
Length of Visible Light
Length of Day
Tomorrow will be .
, % of the Moon is Illuminated

Today's Extremes

State Highs State Lows

Community

WunderPhotos

Upload Photos

1,817,066 photos uploaded!

WunderBlogs® & News

Nearby

Air Quality

  Air Quality AQ Index Pollutant
Not available.

Snow Depth

Station Depth Elevation

Earthquake Activity

City Distance Mag. Time & Date
Minimum magnitude displayed is 2.5.

Coastal Water Temperatures

Place Temperature

Stations

Nearby Weather Stations

Station Location Temp. Windchill Dew Point Humidity Wind Precip. Elev Updated Type